sensor_id;sensor_type;location;lat;lon;timestamp;P1;durP1;ratioP1;P2;durP2;ratioP2
79143;SDS011;68551;47.484;19.092;2023-05-07T00:02:07;10.52;;;6.93;;
79143;SDS011;68551;47.484;19.092;2023-05-07T00:05:11;8.02;;;6.35;;
79143;SDS011;68551;47.484;19.092;2023-05-07T00:08:15;10.07;;;6.90;;
79143;SDS011;68551;47.484;19.092;2023-05-07T00:11:19;8.82;;;6.28;;
79143;SDS011;68551;47.484;19.092;2023-05-07T00:14:25;10.57;;;6.95;;
79143;SDS011;68551;47.484;19.092;2023-05-07T00:17:28;12.70;;;7.00;;
79143;SDS011;68551;47.484;19.092;2023-05-07T00:20:31;9.10;;;6.93;;
79143;SDS011;68551;47.484;19.092;2023-05-07T00:23:37;9.65;;;6.60;;
79143;SDS011;68551;47.484;19.092;2023-05-07T00:26:39;10.45;;;6.97;;
79143;SDS011;68551;47.484;19.092;2023-05-07T00:29:46;11.45;;;7.25;;
79143;SDS011;68551;47.484;19.092;2023-05-07T00:32:53;10.82;;;7.90;;
79143;SDS011;68551;47.484;19.092;2023-05-07T00:36:00;10.82;;;7.85;;
79143;SDS011;68551;47.484;19.092;2023-05-07T00:39:05;9.82;;;6.95;;
79143;SDS011;68551;47.484;19.092;2023-05-07T00:42:08;9.65;;;7.82;;
79143;SDS011;68551;47.484;19.092;2023-05-07T00:45:11;12.23;;;7.78;;
79143;SDS011;68551;47.484;19.092;2023-05-07T00:48:15;11.18;;;7.75;;
79143;SDS011;68551;47.484;19.092;2023-05-07T00:51:20;10.93;;;8.27;;
79143;SDS011;68551;47.484;19.092;2023-05-07T00:54:23;11.27;;;8.00;;
79143;SDS011;68551;47.484;19.092;2023-05-07T00:57:25;8.05;;;6.85;;
79143;SDS011;68551;47.484;19.092;2023-05-07T01:00:30;10.38;;;7.53;;
79143;SDS011;68551;47.484;19.092;2023-05-07T01:03:32;12.05;;;7.13;;
79143;SDS011;68551;47.484;19.092;2023-05-07T01:06:35;11.55;;;8.27;;
79143;SDS011;68551;47.484;19.092;2023-05-07T01:09:38;10.48;;;7.68;;
79143;SDS011;68551;47.484;19.092;2023-05-07T01:12:42;11.55;;;7.43;;
79143;SDS011;68551;47.484;19.092;2023-05-07T01:15:49;10.10;;;7.57;;
79143;SDS011;68551;47.484;19.092;2023-05-07T01:21:59;9.07;;;6.50;;
79143;SDS011;68551;47.484;19.092;2023-05-07T01:25:11;9.45;;;6.93;;
79143;SDS011;68551;47.484;19.092;2023-05-07T01:28:18;9.45;;;7.30;;
79143;SDS011;68551;47.484;19.092;2023-05-07T01:31:20;9.75;;;7.03;;
79143;SDS011;68551;47.484;19.092;2023-05-07T01:34:28;10.10;;;6.55;;
79143;SDS011;68551;47.484;19.092;2023-05-07T01:37:36;8.77;;;6.47;;
79143;SDS011;68551;47.484;19.092;2023-05-07T01:40:39;7.72;;;6.15;;
79143;SDS011;68551;47.484;19.092;2023-05-07T01:43:42;10.32;;;7.20;;
79143;SDS011;68551;47.484;19.092;2023-05-07T01:46:47;15.13;;;8.85;;
79143;SDS011;68551;47.484;19.092;2023-05-07T01:49:55;15.75;;;9.30;;
79143;SDS011;68551;47.484;19.092;2023-05-07T01:52:57;13.20;;;9.70;;
79143;SDS011;68551;47.484;19.092;2023-05-07T01:59:09;12.68;;;8.07;;
79143;SDS011;68551;47.484;19.092;2023-05-07T02:02:13;11.88;;;8.38;;
79143;SDS011;68551;47.484;19.092;2023-05-07T02:05:18;14.73;;;8.55;;
79143;SDS011;68551;47.484;19.092;2023-05-07T02:08:28;11.90;;;8.48;;
79143;SDS011;68551;47.484;19.092;2023-05-07T02:11:33;12.18;;;8.73;;
79143;SDS011;68551;47.484;19.092;2023-05-07T02:14:40;13.18;;;9.02;;
79143;SDS011;68551;47.484;19.092;2023-05-07T02:18:03;14.50;;;9.02;;
79143;SDS011;68551;47.484;19.092;2023-05-07T02:21:08;16.35;;;9.48;;
79143;SDS011;68551;47.484;19.092;2023-05-07T02:24:10;14.52;;;9.43;;
79143;SDS011;68551;47.484;19.092;2023-05-07T02:27:18;13.25;;;8.48;;
79143;SDS011;68551;47.484;19.092;2023-05-07T02:30:20;11.70;;;8.75;;
79143;SDS011;68551;47.484;19.092;2023-05-07T02:33:27;14.13;;;9.60;;
79143;SDS011;68551;47.484;19.092;2023-05-07T02:36:33;12.88;;;9.70;;
79143;SDS011;68551;47.484;19.092;2023-05-07T02:39:41;13.10;;;9.77;;
79143;SDS011;68551;47.484;19.092;2023-05-07T02:42:49;12.77;;;9.15;;
79143;SDS011;68551;47.484;19.092;2023-05-07T02:46:04;13.15;;;8.50;;
79143;SDS011;68551;47.484;19.092;2023-05-07T02:49:10;13.68;;;9.65;;
79143;SDS011;68551;47.484;19.092;2023-05-07T02:52:13;14.20;;;9.57;;
79143;SDS011;68551;47.484;19.092;2023-05-07T02:55:15;11.45;;;8.15;;
79143;SDS011;68551;47.484;19.092;2023-05-07T02:58:20;13.07;;;8.70;;
79143;SDS011;68551;47.484;19.092;2023-05-07T03:01:25;13.30;;;9.73;;
79143;SDS011;68551;47.484;19.092;2023-05-07T03:04:34;12.23;;;9.52;;
79143;SDS011;68551;47.484;19.092;2023-05-07T03:07:39;13.20;;;8.40;;
79143;SDS011;68551;47.484;19.092;2023-05-07T03:10:42;11.90;;;8.40;;
79143;SDS011;68551;47.484;19.092;2023-05-07T03:13:50;12.10;;;7.85;;
79143;SDS011;68551;47.484;19.092;2023-05-07T03:16:56;11.98;;;7.57;;
79143;SDS011;68551;47.484;19.092;2023-05-07T03:19:58;9.52;;;7.22;;
79143;SDS011;68551;47.484;19.092;2023-05-07T03:23:00;11.77;;;7.97;;
79143;SDS011;68551;47.484;19.092;2023-05-07T03:26:05;9.20;;;7.30;;
79143;SDS011;68551;47.484;19.092;2023-05-07T03:29:10;10.77;;;8.27;;
79143;SDS011;68551;47.484;19.092;2023-05-07T03:32:14;11.52;;;8.23;;
79143;SDS011;68551;47.484;19.092;2023-05-07T03:35:17;10.77;;;8.07;;
79143;SDS011;68551;47.484;19.092;2023-05-07T03:38:22;12.35;;;8.23;;
79143;SDS011;68551;47.484;19.092;2023-05-07T03:41:28;11.55;;;8.65;;
79143;SDS011;68551;47.484;19.092;2023-05-07T03:44:36;11.40;;;8.02;;
79143;SDS011;68551;47.484;19.092;2023-05-07T03:47:46;10.57;;;7.40;;
79143;SDS011;68551;47.484;19.092;2023-05-07T03:50:55;9.55;;;7.05;;
79143;SDS011;68551;47.484;19.092;2023-05-07T03:54:05;12.00;;;8.30;;
79143;SDS011;68551;47.484;19.092;2023-05-07T03:57:08;11.43;;;7.88;;
79143;SDS011;68551;47.484;19.092;2023-05-07T04:00:14;11.07;;;8.05;;
79143;SDS011;68551;47.484;19.092;2023-05-07T04:03:25;11.20;;;7.70;;
79143;SDS011;68551;47.484;19.092;2023-05-07T04:06:30;9.57;;;7.40;;
79143;SDS011;68551;47.484;19.092;2023-05-07T04:09:35;11.20;;;7.70;;
79143;SDS011;68551;47.484;19.092;2023-05-07T04:12:38;12.07;;;7.78;;
79143;SDS011;68551;47.484;19.092;2023-05-07T04:15:42;11.32;;;7.40;;
79143;SDS011;68551;47.484;19.092;2023-05-07T04:18:49;9.75;;;6.82;;
79143;SDS011;68551;47.484;19.092;2023-05-07T04:21:54;8.02;;;7.20;;
79143;SDS011;68551;47.484;19.092;2023-05-07T04:25:03;9.90;;;7.05;;
79143;SDS011;68551;47.484;19.092;2023-05-07T04:28:12;10.43;;;7.45;;
79143;SDS011;68551;47.484;19.092;2023-05-07T04:31:15;8.93;;;6.10;;
79143;SDS011;68551;47.484;19.092;2023-05-07T04:34:22;8.15;;;5.65;;
79143;SDS011;68551;47.484;19.092;2023-05-07T04:37:27;9.65;;;6.82;;
79143;SDS011;68551;47.484;19.092;2023-05-07T04:40:29;8.30;;;6.10;;
79143;SDS011;68551;47.484;19.092;2023-05-07T04:43:32;9.98;;;6.18;;
79143;SDS011;68551;47.484;19.092;2023-05-07T04:46:37;10.75;;;6.70;;
79143;SDS011;68551;47.484;19.092;2023-05-07T04:49:40;7.72;;;6.30;;
79143;SDS011;68551;47.484;19.092;2023-05-07T04:52:46;9.63;;;6.25;;
79143;SDS011;68551;47.484;19.092;2023-05-07T04:55:54;7.15;;;5.15;;
79143;SDS011;68551;47.484;19.092;2023-05-07T04:59:01;6.95;;;5.28;;
79143;SDS011;68551;47.484;19.092;2023-05-07T05:02:07;8.10;;;6.00;;
79143;SDS011;68551;47.484;19.092;2023-05-07T05:05:11;8.35;;;5.93;;
79143;SDS011;68551;47.484;19.092;2023-05-07T05:08:16;6.88;;;5.47;;
79143;SDS011;68551;47.484;19.092;2023-05-07T05:14:24;9.60;;;6.60;;
79143;SDS011;68551;47.484;19.092;2023-05-07T05:17:29;8.35;;;6.22;;
79143;SDS011;68551;47.484;19.092;2023-05-07T05:20:31;7.55;;;6.03;;
79143;SDS011;68551;47.484;19.092;2023-05-07T05:23:34;9.18;;;6.32;;
79143;SDS011;68551;47.484;19.092;2023-05-07T05:26:37;10.32;;;7.53;;
79143;SDS011;68551;47.484;19.092;2023-05-07T05:29:42;9.55;;;7.25;;
79143;SDS011;68551;47.484;19.092;2023-05-07T05:32:47;8.82;;;6.35;;
79143;SDS011;68551;47.484;19.092;2023-05-07T05:35:49;8.45;;;6.32;;
79143;SDS011;68551;47.484;19.092;2023-05-07T05:41:57;8.10;;;5.63;;
79143;SDS011;68551;47.484;19.092;2023-05-07T05:45:05;8.13;;;5.30;;
79143;SDS011;68551;47.484;19.092;2023-05-07T05:48:10;7.90;;;5.05;;
79143;SDS011;68551;47.484;19.092;2023-05-07T05:51:16;8.43;;;5.47;;
79143;SDS011;68551;47.484;19.092;2023-05-07T05:54:22;7.65;;;6.43;;
79143;SDS011;68551;47.484;19.092;2023-05-07T05:57:27;8.13;;;6.55;;
79143;SDS011;68551;47.484;19.092;2023-05-07T06:00:31;7.63;;;6.10;;
79143;SDS011;68551;47.484;19.092;2023-05-07T06:03:40;7.05;;;5.75;;
79143;SDS011;68551;47.484;19.092;2023-05-07T06:06:47;8.77;;;6.70;;
79143;SDS011;68551;47.484;19.092;2023-05-07T06:09:51;8.30;;;6.03;;
79143;SDS011;68551;47.484;19.092;2023-05-07T06:12:54;7.85;;;5.80;;
79143;SDS011;68551;47.484;19.092;2023-05-07T06:16:03;7.00;;;6.07;;
79143;SDS011;68551;47.484;19.092;2023-05-07T06:19:06;6.13;;;4.70;;
79143;SDS011;68551;47.484;19.092;2023-05-07T06:22:14;6.68;;;4.80;;
79143;SDS011;68551;47.484;19.092;2023-05-07T06:25:17;6.15;;;4.38;;
79143;SDS011;68551;47.484;19.092;2023-05-07T06:28:25;5.75;;;4.25;;
79143;SDS011;68551;47.484;19.092;2023-05-07T06:31:30;6.53;;;4.43;;
79143;SDS011;68551;47.484;19.092;2023-05-07T06:34:40;4.95;;;3.88;;
79143;SDS011;68551;47.484;19.092;2023-05-07T06:37:44;4.20;;;3.50;;
79143;SDS011;68551;47.484;19.092;2023-05-07T06:40:54;5.68;;;4.30;;
79143;SDS011;68551;47.484;19.092;2023-05-07T06:43:58;5.65;;;4.38;;
79143;SDS011;68551;47.484;19.092;2023-05-07T06:47:16;5.30;;;3.88;;
79143;SDS011;68551;47.484;19.092;2023-05-07T06:50:23;4.15;;;3.75;;
79143;SDS011;68551;47.484;19.092;2023-05-07T06:53:30;3.72;;;3.03;;
79143;SDS011;68551;47.484;19.092;2023-05-07T06:56:35;4.43;;;2.97;;
79143;SDS011;68551;47.484;19.092;2023-05-07T06:59:40;3.70;;;2.58;;
79143;SDS011;68551;47.484;19.092;2023-05-07T07:02:45;4.00;;;3.20;;
79143;SDS011;68551;47.484;19.092;2023-05-07T07:05:53;3.80;;;2.47;;
79143;SDS011;68551;47.484;19.092;2023-05-07T07:08:58;3.45;;;2.75;;
79143;SDS011;68551;47.484;19.092;2023-05-07T07:12:02;3.03;;;2.38;;
79143;SDS011;68551;47.484;19.092;2023-05-07T07:15:05;3.10;;;2.22;;
79143;SDS011;68551;47.484;19.092;2023-05-07T07:18:13;3.50;;;2.80;;
79143;SDS011;68551;47.484;19.092;2023-05-07T07:21:17;4.65;;;3.45;;
79143;SDS011;68551;47.484;19.092;2023-05-07T07:24:20;3.88;;;2.97;;
79143;SDS011;68551;47.484;19.092;2023-05-07T07:27:27;3.83;;;3.00;;
79143;SDS011;68551;47.484;19.092;2023-05-07T07:30:35;5.22;;;3.22;;
79143;SDS011;68551;47.484;19.092;2023-05-07T07:36:39;4.88;;;3.70;;
79143;SDS011;68551;47.484;19.092;2023-05-07T07:39:51;3.85;;;2.97;;
79143;SDS011;68551;47.484;19.092;2023-05-07T07:42:56;3.83;;;3.28;;
79143;SDS011;68551;47.484;19.092;2023-05-07T07:46:03;3.75;;;3.05;;
79143;SDS011;68551;47.484;19.092;2023-05-07T07:49:07;4.10;;;3.10;;
79143;SDS011;68551;47.484;19.092;2023-05-07T07:52:10;5.13;;;3.10;;
79143;SDS011;68551;47.484;19.092;2023-05-07T07:55:19;3.67;;;3.10;;
79143;SDS011;68551;47.484;19.092;2023-05-07T07:58:27;5.35;;;3.47;;
79143;SDS011;68551;47.484;19.092;2023-05-07T08:01:30;3.97;;;2.92;;
79143;SDS011;68551;47.484;19.092;2023-05-07T08:04:34;2.90;;;2.10;;
79143;SDS011;68551;47.484;19.092;2023-05-07T08:07:39;4.30;;;3.05;;
79143;SDS011;68551;47.484;19.092;2023-05-07T08:10:44;4.13;;;3.40;;
79143;SDS011;68551;47.484;19.092;2023-05-07T08:13:57;3.65;;;3.05;;
79143;SDS011;68551;47.484;19.092;2023-05-07T08:17:00;4.28;;;3.35;;
79143;SDS011;68551;47.484;19.092;2023-05-07T08:20:06;4.47;;;3.42;;
79143;SDS011;68551;47.484;19.092;2023-05-07T08:23:15;5.70;;;3.65;;
79143;SDS011;68551;47.484;19.092;2023-05-07T08:26:19;4.65;;;3.15;;
79143;SDS011;68551;47.484;19.092;2023-05-07T08:29:22;3.83;;;3.17;;
79143;SDS011;68551;47.484;19.092;2023-05-07T08:32:27;2.97;;;2.28;;
79143;SDS011;68551;47.484;19.092;2023-05-07T08:35:34;3.38;;;2.50;;
79143;SDS011;68551;47.484;19.092;2023-05-07T08:38:37;3.20;;;2.35;;
79143;SDS011;68551;47.484;19.092;2023-05-07T08:44:49;3.72;;;2.60;;
79143;SDS011;68551;47.484;19.092;2023-05-07T08:48:02;3.15;;;2.60;;
79143;SDS011;68551;47.484;19.092;2023-05-07T08:51:13;3.80;;;2.55;;
79143;SDS011;68551;47.484;19.092;2023-05-07T08:54:18;3.03;;;2.25;;
79143;SDS011;68551;47.484;19.092;2023-05-07T08:57:22;3.53;;;2.60;;
79143;SDS011;68551;47.484;19.092;2023-05-07T09:00:29;4.10;;;2.97;;
79143;SDS011;68551;47.484;19.092;2023-05-07T09:03:37;3.85;;;2.65;;
79143;SDS011;68551;47.484;19.092;2023-05-07T09:06:40;3.33;;;3.00;;
79143;SDS011;68551;47.484;19.092;2023-05-07T09:09:47;3.95;;;2.70;;
79143;SDS011;68551;47.484;19.092;2023-05-07T09:16:01;3.33;;;2.88;;
79143;SDS011;68551;47.484;19.092;2023-05-07T09:19:12;5.18;;;3.58;;
79143;SDS011;68551;47.484;19.092;2023-05-07T09:22:21;4.85;;;3.33;;
79143;SDS011;68551;47.484;19.092;2023-05-07T09:25:36;4.90;;;3.50;;
79143;SDS011;68551;47.484;19.092;2023-05-07T09:28:47;4.55;;;3.35;;
79143;SDS011;68551;47.484;19.092;2023-05-07T09:31:50;4.43;;;3.10;;
79143;SDS011;68551;47.484;19.092;2023-05-07T09:34:53;4.00;;;3.03;;
79143;SDS011;68551;47.484;19.092;2023-05-07T09:37:59;4.05;;;3.10;;
79143;SDS011;68551;47.484;19.092;2023-05-07T09:41:10;3.83;;;2.90;;
79143;SDS011;68551;47.484;19.092;2023-05-07T09:44:28;3.15;;;2.40;;
79143;SDS011;68551;47.484;19.092;2023-05-07T09:47:33;2.35;;;1.80;;
79143;SDS011;68551;47.484;19.092;2023-05-07T09:50:48;3.40;;;2.70;;
79143;SDS011;68551;47.484;19.092;2023-05-07T09:53:54;3.20;;;2.70;;
79143;SDS011;68551;47.484;19.092;2023-05-07T09:57:00;2.88;;;2.40;;
79143;SDS011;68551;47.484;19.092;2023-05-07T10:00:07;3.28;;;2.50;;
79143;SDS011;68551;47.484;19.092;2023-05-07T10:03:21;4.18;;;2.83;;
79143;SDS011;68551;47.484;19.092;2023-05-07T10:06:32;3.38;;;2.72;;
79143;SDS011;68551;47.484;19.092;2023-05-07T10:09:37;2.83;;;2.53;;
79143;SDS011;68551;47.484;19.092;2023-05-07T10:12:54;4.28;;;2.97;;
79143;SDS011;68551;47.484;19.092;2023-05-07T10:16:04;3.88;;;3.20;;
79143;SDS011;68551;47.484;19.092;2023-05-07T10:19:13;3.75;;;2.97;;
79143;SDS011;68551;47.484;19.092;2023-05-07T10:22:23;4.78;;;3.15;;
79143;SDS011;68551;47.484;19.092;2023-05-07T10:25:30;5.57;;;3.75;;
79143;SDS011;68551;47.484;19.092;2023-05-07T10:28:40;4.18;;;3.38;;
79143;SDS011;68551;47.484;19.092;2023-05-07T10:35:02;5.00;;;3.20;;
79143;SDS011;68551;47.484;19.092;2023-05-07T10:38:07;4.72;;;3.15;;
79143;SDS011;68551;47.484;19.092;2023-05-07T10:41:15;4.88;;;3.47;;
79143;SDS011;68551;47.484;19.092;2023-05-07T10:44:28;4.22;;;3.33;;
79143;SDS011;68551;47.484;19.092;2023-05-07T10:47:36;4.22;;;3.40;;
79143;SDS011;68551;47.484;19.092;2023-05-07T10:51:39;4.32;;;3.33;;
79143;SDS011;68551;47.484;19.092;2023-05-07T10:55:35;4.57;;;3.30;;
79143;SDS011;68551;47.484;19.092;2023-05-07T10:58:31;5.05;;;3.25;;
79143;SDS011;68551;47.484;19.092;2023-05-07T11:01:54;6.68;;;3.25;;
79143;SDS011;68551;47.484;19.092;2023-05-07T11:05:22;3.75;;;3.08;;
79143;SDS011;68551;47.484;19.092;2023-05-07T11:12:04;3.47;;;2.90;;
79143;SDS011;68551;47.484;19.092;2023-05-07T11:15:33;5.18;;;3.28;;
79143;SDS011;68551;47.484;19.092;2023-05-07T11:18:52;4.63;;;2.97;;
79143;SDS011;68551;47.484;19.092;2023-05-07T11:26:00;4.88;;;2.75;;
79143;SDS011;68551;47.484;19.092;2023-05-07T11:29:09;3.40;;;2.60;;
79143;SDS011;68551;47.484;19.092;2023-05-07T11:32:22;3.08;;;2.67;;
79143;SDS011;68551;47.484;19.092;2023-05-07T11:35:28;3.47;;;2.60;;
79143;SDS011;68551;47.484;19.092;2023-05-07T11:38:34;3.28;;;2.85;;
79143;SDS011;68551;47.484;19.092;2023-05-07T11:41:38;5.78;;;3.72;;
79143;SDS011;68551;47.484;19.092;2023-05-07T11:44:44;3.65;;;2.88;;
79143;SDS011;68551;47.484;19.092;2023-05-07T11:47:48;3.88;;;3.00;;
79143;SDS011;68551;47.484;19.092;2023-05-07T11:50:51;3.67;;;2.80;;
79143;SDS011;68551;47.484;19.092;2023-05-07T11:54:00;3.35;;;2.88;;
79143;SDS011;68551;47.484;19.092;2023-05-07T11:57:05;4.63;;;2.83;;
79143;SDS011;68551;47.484;19.092;2023-05-07T12:00:16;4.07;;;3.05;;
79143;SDS011;68551;47.484;19.092;2023-05-07T12:06:26;4.57;;;2.97;;
79143;SDS011;68551;47.484;19.092;2023-05-07T12:09:35;3.45;;;2.88;;
79143;SDS011;68551;47.484;19.092;2023-05-07T12:12:41;4.55;;;3.20;;
79143;SDS011;68551;47.484;19.092;2023-05-07T12:15:51;3.70;;;2.83;;
79143;SDS011;68551;47.484;19.092;2023-05-07T12:18:54;4.00;;;3.03;;
79143;SDS011;68551;47.484;19.092;2023-05-07T12:21:57;3.50;;;2.67;;
79143;SDS011;68551;47.484;19.092;2023-05-07T12:25:00;3.78;;;2.92;;
79143;SDS011;68551;47.484;19.092;2023-05-07T12:28:02;3.60;;;2.65;;
79143;SDS011;68551;47.484;19.092;2023-05-07T12:31:07;3.08;;;2.85;;
79143;SDS011;68551;47.484;19.092;2023-05-07T12:34:10;3.47;;;2.70;;
79143;SDS011;68551;47.484;19.092;2023-05-07T12:37:15;3.05;;;2.38;;
79143;SDS011;68551;47.484;19.092;2023-05-07T12:40:20;3.35;;;2.78;;
79143;SDS011;68551;47.484;19.092;2023-05-07T12:43:28;2.85;;;2.47;;
79143;SDS011;68551;47.484;19.092;2023-05-07T12:46:38;3.70;;;2.92;;
79143;SDS011;68551;47.484;19.092;2023-05-07T12:49:43;3.58;;;2.28;;
79143;SDS011;68551;47.484;19.092;2023-05-07T12:52:47;4.03;;;2.80;;
79143;SDS011;68551;47.484;19.092;2023-05-07T12:55:54;2.63;;;2.05;;
79143;SDS011;68551;47.484;19.092;2023-05-07T12:58:57;4.18;;;3.33;;
79143;SDS011;68551;47.484;19.092;2023-05-07T13:02:04;3.28;;;2.38;;
79143;SDS011;68551;47.484;19.092;2023-05-07T13:05:09;4.43;;;2.80;;
79143;SDS011;68551;47.484;19.092;2023-05-07T13:08:12;3.47;;;2.47;;
79143;SDS011;68551;47.484;19.092;2023-05-07T13:11:40;3.17;;;2.40;;
79143;SDS011;68551;47.484;19.092;2023-05-07T13:14:45;3.55;;;2.75;;
79143;SDS011;68551;47.484;19.092;2023-05-07T13:17:49;3.03;;;2.40;;
79143;SDS011;68551;47.484;19.092;2023-05-07T13:20:55;3.30;;;2.67;;
79143;SDS011;68551;47.484;19.092;2023-05-07T13:24:02;3.35;;;2.90;;
79143;SDS011;68551;47.484;19.092;2023-05-07T13:27:04;3.20;;;2.83;;
79143;SDS011;68551;47.484;19.092;2023-05-07T13:30:07;4.03;;;2.60;;
79143;SDS011;68551;47.484;19.092;2023-05-07T13:33:12;3.58;;;2.53;;
79143;SDS011;68551;47.484;19.092;2023-05-07T13:36:16;4.13;;;2.50;;
79143;SDS011;68551;47.484;19.092;2023-05-07T13:39:18;3.72;;;2.25;;
79143;SDS011;68551;47.484;19.092;2023-05-07T13:42:21;3.33;;;2.25;;
79143;SDS011;68551;47.484;19.092;2023-05-07T13:45:23;3.28;;;2.10;;
79143;SDS011;68551;47.484;19.092;2023-05-07T13:48:27;3.65;;;2.50;;
79143;SDS011;68551;47.484;19.092;2023-05-07T13:51:33;2.92;;;2.22;;
79143;SDS011;68551;47.484;19.092;2023-05-07T13:54:38;3.10;;;2.45;;
79143;SDS011;68551;47.484;19.092;2023-05-07T13:57:45;3.72;;;1.92;;
79143;SDS011;68551;47.484;19.092;2023-05-07T14:00:56;3.85;;;3.05;;
79143;SDS011;68551;47.484;19.092;2023-05-07T14:03:59;3.88;;;2.83;;
79143;SDS011;68551;47.484;19.092;2023-05-07T14:07:01;4.70;;;3.35;;
79143;SDS011;68551;47.484;19.092;2023-05-07T14:10:04;3.90;;;2.92;;
79143;SDS011;68551;47.484;19.092;2023-05-07T14:13:10;4.05;;;3.00;;
79143;SDS011;68551;47.484;19.092;2023-05-07T14:16:18;3.35;;;2.47;;
79143;SDS011;68551;47.484;19.092;2023-05-07T14:19:23;3.30;;;2.58;;
79143;SDS011;68551;47.484;19.092;2023-05-07T14:22:28;5.05;;;2.95;;
79143;SDS011;68551;47.484;19.092;2023-05-07T14:28:35;2.97;;;2.45;;
79143;SDS011;68551;47.484;19.092;2023-05-07T14:31:37;3.45;;;2.50;;
79143;SDS011;68551;47.484;19.092;2023-05-07T14:34:42;3.75;;;2.60;;
79143;SDS011;68551;47.484;19.092;2023-05-07T14:37:44;5.22;;;2.70;;
79143;SDS011;68551;47.484;19.092;2023-05-07T14:40:49;3.22;;;2.60;;
79143;SDS011;68551;47.484;19.092;2023-05-07T14:43:51;3.25;;;2.53;;
79143;SDS011;68551;47.484;19.092;2023-05-07T14:47:03;3.28;;;2.30;;
79143;SDS011;68551;47.484;19.092;2023-05-07T14:50:11;3.30;;;2.65;;
79143;SDS011;68551;47.484;19.092;2023-05-07T14:53:15;4.75;;;2.60;;
79143;SDS011;68551;47.484;19.092;2023-05-07T14:56:23;3.85;;;2.42;;
79143;SDS011;68551;47.484;19.092;2023-05-07T14:59:28;4.18;;;3.10;;
79143;SDS011;68551;47.484;19.092;2023-05-07T15:02:30;3.83;;;2.72;;
79143;SDS011;68551;47.484;19.092;2023-05-07T15:05:36;3.13;;;2.50;;
79143;SDS011;68551;47.484;19.092;2023-05-07T15:08:39;3.45;;;2.75;;
79143;SDS011;68551;47.484;19.092;2023-05-07T15:11:44;4.30;;;3.20;;
79143;SDS011;68551;47.484;19.092;2023-05-07T15:14:47;3.55;;;3.13;;
79143;SDS011;68551;47.484;19.092;2023-05-07T15:17:49;5.30;;;3.33;;
79143;SDS011;68551;47.484;19.092;2023-05-07T15:20:51;6.03;;;3.72;;
79143;SDS011;68551;47.484;19.092;2023-05-07T15:23:54;4.97;;;3.08;;
79143;SDS011;68551;47.484;19.092;2023-05-07T15:26:56;5.18;;;3.47;;
79143;SDS011;68551;47.484;19.092;2023-05-07T15:30:00;5.25;;;3.38;;
79143;SDS011;68551;47.484;19.092;2023-05-07T15:33:06;5.03;;;3.55;;
79143;SDS011;68551;47.484;19.092;2023-05-07T15:36:09;4.88;;;3.28;;
79143;SDS011;68551;47.484;19.092;2023-05-07T15:39:11;4.85;;;3.88;;
79143;SDS011;68551;47.484;19.092;2023-05-07T15:42:18;5.45;;;3.58;;
79143;SDS011;68551;47.484;19.092;2023-05-07T15:45:22;4.13;;;3.28;;
79143;SDS011;68551;47.484;19.092;2023-05-07T15:48:25;5.60;;;3.28;;
79143;SDS011;68551;47.484;19.092;2023-05-07T15:51:30;3.85;;;2.85;;
79143;SDS011;68551;47.484;19.092;2023-05-07T15:57:39;5.55;;;2.83;;
79143;SDS011;68551;47.484;19.092;2023-05-07T16:00:44;3.85;;;2.70;;
79143;SDS011;68551;47.484;19.092;2023-05-07T16:03:51;4.40;;;3.03;;
79143;SDS011;68551;47.484;19.092;2023-05-07T16:13:02;5.18;;;3.80;;
79143;SDS011;68551;47.484;19.092;2023-05-07T16:16:10;3.78;;;2.95;;
79143;SDS011;68551;47.484;19.092;2023-05-07T16:19:17;2.85;;;2.35;;
79143;SDS011;68551;47.484;19.092;2023-05-07T16:22:19;3.63;;;2.30;;
79143;SDS011;68551;47.484;19.092;2023-05-07T16:25:23;2.25;;;2.00;;
79143;SDS011;68551;47.484;19.092;2023-05-07T16:28:27;2.50;;;2.28;;
79143;SDS011;68551;47.484;19.092;2023-05-07T16:31:32;4.60;;;2.20;;
79143;SDS011;68551;47.484;19.092;2023-05-07T16:34:37;3.17;;;2.17;;
79143;SDS011;68551;47.484;19.092;2023-05-07T16:37:40;2.63;;;2.20;;
79143;SDS011;68551;47.484;19.092;2023-05-07T16:40:45;2.90;;;2.33;;
79143;SDS011;68551;47.484;19.092;2023-05-07T16:43:49;2.85;;;2.35;;
79143;SDS011;68551;47.484;19.092;2023-05-07T16:46:56;3.15;;;1.90;;
79143;SDS011;68551;47.484;19.092;2023-05-07T16:49:59;2.40;;;1.80;;
79143;SDS011;68551;47.484;19.092;2023-05-07T16:53:06;2.63;;;1.95;;
79143;SDS011;68551;47.484;19.092;2023-05-07T16:56:09;4.32;;;2.08;;
79143;SDS011;68551;47.484;19.092;2023-05-07T16:59:11;4.88;;;3.50;;
79143;SDS011;68551;47.484;19.092;2023-05-07T17:02:15;2.92;;;2.00;;
79143;SDS011;68551;47.484;19.092;2023-05-07T17:05:19;3.33;;;2.10;;
79143;SDS011;68551;47.484;19.092;2023-05-07T17:08:21;2.92;;;2.25;;
79143;SDS011;68551;47.484;19.092;2023-05-07T17:14:32;3.00;;;2.50;;
79143;SDS011;68551;47.484;19.092;2023-05-07T17:17:34;2.97;;;2.33;;
79143;SDS011;68551;47.484;19.092;2023-05-07T17:20:36;4.22;;;2.20;;
79143;SDS011;68551;47.484;19.092;2023-05-07T17:23:41;3.25;;;2.25;;
79143;SDS011;68551;47.484;19.092;2023-05-07T17:26:43;2.85;;;2.20;;
79143;SDS011;68551;47.484;19.092;2023-05-07T17:29:48;2.30;;;1.88;;
79143;SDS011;68551;47.484;19.092;2023-05-07T17:35:56;2.90;;;2.00;;
79143;SDS011;68551;47.484;19.092;2023-05-07T17:38:58;2.47;;;1.90;;
79143;SDS011;68551;47.484;19.092;2023-05-07T17:42:03;4.15;;;2.10;;
79143;SDS011;68551;47.484;19.092;2023-05-07T17:45:05;3.65;;;2.03;;
79143;SDS011;68551;47.484;19.092;2023-05-07T17:48:08;2.95;;;1.90;;
79143;SDS011;68551;47.484;19.092;2023-05-07T17:51:13;2.83;;;1.92;;
79143;SDS011;68551;47.484;19.092;2023-05-07T17:54:18;2.75;;;2.20;;
79143;SDS011;68551;47.484;19.092;2023-05-07T17:57:20;2.40;;;2.20;;
79143;SDS011;68551;47.484;19.092;2023-05-07T18:00:22;2.38;;;1.83;;
79143;SDS011;68551;47.484;19.092;2023-05-07T18:03:25;3.00;;;1.90;;
79143;SDS011;68551;47.484;19.092;2023-05-07T18:06:31;2.85;;;2.20;;
79143;SDS011;68551;47.484;19.092;2023-05-07T18:09:34;2.90;;;2.22;;
79143;SDS011;68551;47.484;19.092;2023-05-07T18:12:38;3.15;;;2.20;;
79143;SDS011;68551;47.484;19.092;2023-05-07T18:15:41;2.65;;;2.00;;
79143;SDS011;68551;47.484;19.092;2023-05-07T18:18:45;3.25;;;2.22;;
79143;SDS011;68551;47.484;19.092;2023-05-07T18:21:48;3.38;;;2.28;;
79143;SDS011;68551;47.484;19.092;2023-05-07T18:24:50;4.10;;;2.35;;
79143;SDS011;68551;47.484;19.092;2023-05-07T18:27:53;4.80;;;2.67;;
79143;SDS011;68551;47.484;19.092;2023-05-07T18:30:55;3.10;;;2.42;;
79143;SDS011;68551;47.484;19.092;2023-05-07T18:33:58;3.08;;;2.30;;
79143;SDS011;68551;47.484;19.092;2023-05-07T18:37:02;3.67;;;2.30;;
79143;SDS011;68551;47.484;19.092;2023-05-07T18:40:05;2.85;;;2.13;;
79143;SDS011;68551;47.484;19.092;2023-05-07T18:43:11;2.50;;;1.85;;
79143;SDS011;68551;47.484;19.092;2023-05-07T18:46:16;3.78;;;2.78;;
79143;SDS011;68551;47.484;19.092;2023-05-07T18:49:18;3.58;;;2.10;;
79143;SDS011;68551;47.484;19.092;2023-05-07T18:52:21;5.00;;;2.40;;
79143;SDS011;68551;47.484;19.092;2023-05-07T18:55:23;5.13;;;2.97;;
79143;SDS011;68551;47.484;19.092;2023-05-07T18:58:26;3.60;;;2.80;;
79143;SDS011;68551;47.484;19.092;2023-05-07T19:01:28;4.95;;;3.20;;
79143;SDS011;68551;47.484;19.092;2023-05-07T19:04:31;4.38;;;3.70;;
79143;SDS011;68551;47.484;19.092;2023-05-07T19:07:36;5.95;;;3.53;;
79143;SDS011;68551;47.484;19.092;2023-05-07T19:10:41;6.30;;;4.05;;
79143;SDS011;68551;47.484;19.092;2023-05-07T19:13:46;5.05;;;4.18;;